sensor_id;sensor_type;location;lat;lon;timestamp;P1;durP1;ratioP1;P2;durP2;ratioP2
11524;SDS011;5819;49.648;8.330;2023-02-11T00:02:16;53.77;;;33.87;;
11524;SDS011;5819;49.648;8.330;2023-02-11T00:04:43;53.40;;;33.70;;
11524;SDS011;5819;49.648;8.330;2023-02-11T00:07:11;55.10;;;34.77;;
11524;SDS011;5819;49.648;8.330;2023-02-11T00:09:39;53.70;;;35.40;;
11524;SDS011;5819;49.648;8.330;2023-02-11T00:12:07;54.33;;;33.73;;
11524;SDS011;5819;49.648;8.330;2023-02-11T00:14:35;51.80;;;33.70;;
11524;SDS011;5819;49.648;8.330;2023-02-11T00:17:05;50.03;;;32.67;;
11524;SDS011;5819;49.648;8.330;2023-02-11T00:19:33;52.23;;;33.33;;
11524;SDS011;5819;49.648;8.330;2023-02-11T00:22:00;53.40;;;32.50;;
11524;SDS011;5819;49.648;8.330;2023-02-11T00:24:28;52.83;;;33.73;;
11524;SDS011;5819;49.648;8.330;2023-02-11T00:26:56;51.47;;;33.40;;
11524;SDS011;5819;49.648;8.330;2023-02-11T00:29:26;48.47;;;32.97;;
11524;SDS011;5819;49.648;8.330;2023-02-11T00:31:57;50.43;;;30.97;;
11524;SDS011;5819;49.648;8.330;2023-02-11T00:34:34;49.77;;;32.13;;
11524;SDS011;5819;49.648;8.330;2023-02-11T00:37:04;47.90;;;31.63;;
11524;SDS011;5819;49.648;8.330;2023-02-11T00:39:35;51.50;;;32.97;;
11524;SDS011;5819;49.648;8.330;2023-02-11T00:42:15;47.53;;;31.63;;
11524;SDS011;5819;49.648;8.330;2023-02-11T00:44:45;49.17;;;31.50;;
11524;SDS011;5819;49.648;8.330;2023-02-11T00:47:15;48.73;;;31.37;;
11524;SDS011;5819;49.648;8.330;2023-02-11T00:49:45;42.47;;;28.63;;
11524;SDS011;5819;49.648;8.330;2023-02-11T00:52:15;47.00;;;30.23;;
11524;SDS011;5819;49.648;8.330;2023-02-11T00:54:45;44.10;;;28.60;;
11524;SDS011;5819;49.648;8.330;2023-02-11T00:57:12;44.53;;;29.63;;
11524;SDS011;5819;49.648;8.330;2023-02-11T00:59:40;45.70;;;29.17;;
11524;SDS011;5819;49.648;8.330;2023-02-11T01:02:08;45.03;;;28.40;;
11524;SDS011;5819;49.648;8.330;2023-02-11T01:04:36;41.67;;;27.87;;
11524;SDS011;5819;49.648;8.330;2023-02-11T01:07:07;40.73;;;27.83;;
11524;SDS011;5819;49.648;8.330;2023-02-11T01:09:36;41.80;;;28.37;;
11524;SDS011;5819;49.648;8.330;2023-02-11T01:12:04;40.53;;;26.63;;
11524;SDS011;5819;49.648;8.330;2023-02-11T01:14:32;38.80;;;26.00;;
11524;SDS011;5819;49.648;8.330;2023-02-11T01:17:00;38.93;;;25.73;;
11524;SDS011;5819;49.648;8.330;2023-02-11T01:19:28;40.53;;;26.40;;
11524;SDS011;5819;49.648;8.330;2023-02-11T01:21:56;40.13;;;25.00;;
11524;SDS011;5819;49.648;8.330;2023-02-11T01:24:25;39.83;;;25.42;;
11524;SDS011;5819;49.648;8.330;2023-02-11T01:26:52;36.40;;;25.13;;
11524;SDS011;5819;49.648;8.330;2023-02-11T01:29:22;36.80;;;26.37;;
11524;SDS011;5819;49.648;8.330;2023-02-11T01:31:53;36.20;;;25.50;;
11524;SDS011;5819;49.648;8.330;2023-02-11T01:34:20;35.80;;;25.37;;
11524;SDS011;5819;49.648;8.330;2023-02-11T01:36:48;36.03;;;24.27;;
11524;SDS011;5819;49.648;8.330;2023-02-11T01:39:16;39.63;;;25.77;;
11524;SDS011;5819;49.648;8.330;2023-02-11T01:41:46;37.13;;;24.10;;
11524;SDS011;5819;49.648;8.330;2023-02-11T01:44:21;37.13;;;25.27;;
11524;SDS011;5819;49.648;8.330;2023-02-11T01:46:53;35.53;;;25.07;;
11524;SDS011;5819;49.648;8.330;2023-02-11T01:49:22;35.97;;;25.17;;
11524;SDS011;5819;49.648;8.330;2023-02-11T01:51:54;35.80;;;24.77;;
11524;SDS011;5819;49.648;8.330;2023-02-11T01:54:27;39.40;;;26.43;;
11524;SDS011;5819;49.648;8.330;2023-02-11T01:57:19;39.87;;;25.90;;
11524;SDS011;5819;49.648;8.330;2023-02-11T02:00:06;39.63;;;25.70;;
11524;SDS011;5819;49.648;8.330;2023-02-11T02:02:42;38.17;;;24.73;;
11524;SDS011;5819;49.648;8.330;2023-02-11T02:05:17;39.47;;;25.27;;
11524;SDS011;5819;49.648;8.330;2023-02-11T02:07:52;39.23;;;24.43;;
11524;SDS011;5819;49.648;8.330;2023-02-11T02:10:25;38.23;;;25.93;;
11524;SDS011;5819;49.648;8.330;2023-02-11T02:12:56;41.07;;;25.90;;
11524;SDS011;5819;49.648;8.330;2023-02-11T02:15:26;41.40;;;26.67;;
11524;SDS011;5819;49.648;8.330;2023-02-11T02:18:00;44.63;;;26.80;;
11524;SDS011;5819;49.648;8.330;2023-02-11T02:23:55;36.70;;;24.73;;
11524;SDS011;5819;49.648;8.330;2023-02-11T02:26:49;34.67;;;22.97;;
11524;SDS011;5819;49.648;8.330;2023-02-11T02:29:41;38.43;;;25.27;;
11524;SDS011;5819;49.648;8.330;2023-02-11T02:32:32;36.93;;;25.00;;
11524;SDS011;5819;49.648;8.330;2023-02-11T02:35:11;34.13;;;23.57;;
11524;SDS011;5819;49.648;8.330;2023-02-11T02:37:46;33.63;;;23.47;;
11524;SDS011;5819;49.648;8.330;2023-02-11T02:40:18;36.00;;;24.33;;
11524;SDS011;5819;49.648;8.330;2023-02-11T02:42:50;36.13;;;24.77;;
11524;SDS011;5819;49.648;8.330;2023-02-11T02:45:19;37.33;;;24.67;;
11524;SDS011;5819;49.648;8.330;2023-02-11T02:47:48;40.93;;;26.40;;
11524;SDS011;5819;49.648;8.330;2023-02-11T02:50:18;36.20;;;24.60;;
11524;SDS011;5819;49.648;8.330;2023-02-11T02:52:54;35.83;;;25.87;;
11524;SDS011;5819;49.648;8.330;2023-02-11T02:55:33;34.23;;;24.23;;
11524;SDS011;5819;49.648;8.330;2023-02-11T02:58:16;35.00;;;24.30;;
11524;SDS011;5819;49.648;8.330;2023-02-11T03:01:01;38.43;;;25.50;;
11524;SDS011;5819;49.648;8.330;2023-02-11T03:03:40;35.40;;;24.93;;
11524;SDS011;5819;49.648;8.330;2023-02-11T03:06:12;34.40;;;23.47;;
11524;SDS011;5819;49.648;8.330;2023-02-11T03:08:48;35.60;;;25.40;;
11524;SDS011;5819;49.648;8.330;2023-02-11T03:11:21;38.33;;;25.40;;
11524;SDS011;5819;49.648;8.330;2023-02-11T03:13:50;39.80;;;25.80;;
11524;SDS011;5819;49.648;8.330;2023-02-11T03:16:22;36.97;;;24.20;;
11524;SDS011;5819;49.648;8.330;2023-02-11T03:18:56;34.83;;;24.13;;
11524;SDS011;5819;49.648;8.330;2023-02-11T03:21:29;34.27;;;24.17;;
11524;SDS011;5819;49.648;8.330;2023-02-11T03:23:59;42.13;;;26.70;;
11524;SDS011;5819;49.648;8.330;2023-02-11T03:26:33;37.37;;;25.23;;
11524;SDS011;5819;49.648;8.330;2023-02-11T03:29:06;37.23;;;24.93;;
11524;SDS011;5819;49.648;8.330;2023-02-11T03:31:40;36.13;;;24.17;;
11524;SDS011;5819;49.648;8.330;2023-02-11T03:34:20;37.50;;;25.27;;
11524;SDS011;5819;49.648;8.330;2023-02-11T03:36:54;34.77;;;25.13;;
11524;SDS011;5819;49.648;8.330;2023-02-11T03:39:28;38.63;;;25.10;;
11524;SDS011;5819;49.648;8.330;2023-02-11T03:42:00;36.70;;;23.87;;
11524;SDS011;5819;49.648;8.330;2023-02-11T03:44:31;37.23;;;24.20;;
11524;SDS011;5819;49.648;8.330;2023-02-11T03:47:03;36.97;;;25.17;;
11524;SDS011;5819;49.648;8.330;2023-02-11T03:49:38;38.67;;;25.23;;
11524;SDS011;5819;49.648;8.330;2023-02-11T03:52:08;35.00;;;24.70;;
11524;SDS011;5819;49.648;8.330;2023-02-11T03:54:38;40.67;;;26.00;;
11524;SDS011;5819;49.648;8.330;2023-02-11T03:57:09;38.53;;;25.73;;
11524;SDS011;5819;49.648;8.330;2023-02-11T03:59:50;38.53;;;25.63;;
11524;SDS011;5819;49.648;8.330;2023-02-11T04:02:20;40.57;;;24.77;;
11524;SDS011;5819;49.648;8.330;2023-02-11T04:04:49;39.47;;;26.03;;
11524;SDS011;5819;49.648;8.330;2023-02-11T04:07:17;40.70;;;25.40;;
11524;SDS011;5819;49.648;8.330;2023-02-11T04:09:45;39.83;;;25.57;;
11524;SDS011;5819;49.648;8.330;2023-02-11T04:12:13;38.43;;;24.83;;
11524;SDS011;5819;49.648;8.330;2023-02-11T04:14:41;39.83;;;26.03;;
11524;SDS011;5819;49.648;8.330;2023-02-11T04:17:09;44.93;;;26.23;;
11524;SDS011;5819;49.648;8.330;2023-02-11T04:19:37;42.90;;;27.33;;
11524;SDS011;5819;49.648;8.330;2023-02-11T04:22:06;40.13;;;25.77;;
11524;SDS011;5819;49.648;8.330;2023-02-11T04:24:34;38.00;;;25.50;;
11524;SDS011;5819;49.648;8.330;2023-02-11T04:27:02;42.27;;;27.83;;
11524;SDS011;5819;49.648;8.330;2023-02-11T04:29:30;42.17;;;28.53;;
11524;SDS011;5819;49.648;8.330;2023-02-11T04:31:58;43.33;;;27.37;;
11524;SDS011;5819;49.648;8.330;2023-02-11T04:34:26;43.30;;;26.43;;
11524;SDS011;5819;49.648;8.330;2023-02-11T04:36:54;43.37;;;26.70;;
11524;SDS011;5819;49.648;8.330;2023-02-11T04:39:23;41.17;;;26.03;;
11524;SDS011;5819;49.648;8.330;2023-02-11T04:41:51;44.33;;;26.13;;
11524;SDS011;5819;49.648;8.330;2023-02-11T04:44:18;42.03;;;25.47;;
11524;SDS011;5819;49.648;8.330;2023-02-11T04:46:46;41.13;;;26.33;;
11524;SDS011;5819;49.648;8.330;2023-02-11T04:49:14;42.40;;;26.23;;
11524;SDS011;5819;49.648;8.330;2023-02-11T04:51:43;36.37;;;24.43;;
11524;SDS011;5819;49.648;8.330;2023-02-11T04:54:14;38.53;;;24.53;;
11524;SDS011;5819;49.648;8.330;2023-02-11T04:56:44;39.37;;;24.47;;
11524;SDS011;5819;49.648;8.330;2023-02-11T04:59:12;34.97;;;23.17;;
11524;SDS011;5819;49.648;8.330;2023-02-11T05:01:40;38.80;;;23.90;;
11524;SDS011;5819;49.648;8.330;2023-02-11T05:04:07;35.20;;;23.47;;
11524;SDS011;5819;49.648;8.330;2023-02-11T05:06:36;34.53;;;23.73;;
11524;SDS011;5819;49.648;8.330;2023-02-11T05:09:05;37.80;;;23.27;;
11524;SDS011;5819;49.648;8.330;2023-02-11T05:11:32;39.57;;;24.00;;
11524;SDS011;5819;49.648;8.330;2023-02-11T05:14:03;37.77;;;23.73;;
11524;SDS011;5819;49.648;8.330;2023-02-11T05:16:31;35.87;;;23.43;;
11524;SDS011;5819;49.648;8.330;2023-02-11T05:18:59;34.27;;;23.20;;
11524;SDS011;5819;49.648;8.330;2023-02-11T05:21:27;39.80;;;23.63;;
11524;SDS011;5819;49.648;8.330;2023-02-11T05:23:55;35.77;;;24.73;;
11524;SDS011;5819;49.648;8.330;2023-02-11T05:26:23;34.47;;;23.07;;
11524;SDS011;5819;49.648;8.330;2023-02-11T05:28:51;35.23;;;23.23;;
11524;SDS011;5819;49.648;8.330;2023-02-11T05:31:20;37.67;;;24.00;;
11524;SDS011;5819;49.648;8.330;2023-02-11T05:33:47;29.97;;;21.13;;
11524;SDS011;5819;49.648;8.330;2023-02-11T05:36:15;33.23;;;22.80;;
11524;SDS011;5819;49.648;8.330;2023-02-11T05:38:43;30.97;;;21.57;;
11524;SDS011;5819;49.648;8.330;2023-02-11T05:41:11;33.17;;;22.50;;
11524;SDS011;5819;49.648;8.330;2023-02-11T05:43:39;32.07;;;21.87;;
11524;SDS011;5819;49.648;8.330;2023-02-11T05:46:06;33.10;;;20.93;;
11524;SDS011;5819;49.648;8.330;2023-02-11T05:48:36;35.37;;;22.63;;
11524;SDS011;5819;49.648;8.330;2023-02-11T05:51:04;31.97;;;22.03;;
11524;SDS011;5819;49.648;8.330;2023-02-11T05:53:32;32.83;;;22.90;;
11524;SDS011;5819;49.648;8.330;2023-02-11T05:56:00;34.30;;;21.80;;
11524;SDS011;5819;49.648;8.330;2023-02-11T05:58:28;32.70;;;22.37;;
11524;SDS011;5819;49.648;8.330;2023-02-11T06:00:56;32.60;;;22.00;;
11524;SDS011;5819;49.648;8.330;2023-02-11T06:03:24;32.17;;;22.90;;
11524;SDS011;5819;49.648;8.330;2023-02-11T06:05:53;35.83;;;23.20;;
11524;SDS011;5819;49.648;8.330;2023-02-11T06:08:20;35.97;;;23.47;;
11524;SDS011;5819;49.648;8.330;2023-02-11T06:10:48;33.90;;;22.50;;
11524;SDS011;5819;49.648;8.330;2023-02-11T06:13:16;35.60;;;23.03;;
11524;SDS011;5819;49.648;8.330;2023-02-11T06:15:45;32.53;;;22.77;;
11524;SDS011;5819;49.648;8.330;2023-02-11T06:18:22;36.37;;;22.77;;
11524;SDS011;5819;49.648;8.330;2023-02-11T06:20:49;33.63;;;22.80;;
11524;SDS011;5819;49.648;8.330;2023-02-11T06:23:19;34.97;;;24.30;;
11524;SDS011;5819;49.648;8.330;2023-02-11T06:25:47;38.03;;;23.30;;
11524;SDS011;5819;49.648;8.330;2023-02-11T06:28:15;39.00;;;25.17;;
11524;SDS011;5819;49.648;8.330;2023-02-11T06:30:43;36.43;;;23.30;;
11524;SDS011;5819;49.648;8.330;2023-02-11T06:33:11;38.07;;;24.90;;
11524;SDS011;5819;49.648;8.330;2023-02-11T06:35:40;37.50;;;25.80;;
11524;SDS011;5819;49.648;8.330;2023-02-11T06:38:07;42.60;;;26.13;;
